Terminal Aerodrome Forecast
Issued by NWS Melbourne, FL

Home | Current Version | Previous Version | Text Only | Print | Product List | Glossary On
Versions: 1 2 3 4 5 6 7 8 9 10 11 12 13
000
FTUS42 KMLB 270529
TAFVRB
TAF
KVRB 270529Z 2706/2806 12012KT P6SM -RA SCT015 OVC030
      TEMPO 2711/2715 VRB20G30KT 1SM +TSRA OVC015CB
     FM271600 15014G22KT 5SM -RA SCT015 OVC025
      TEMPO 2800/2804 3SM SHRA BKN010 OVC025=

USA.gov is the U.S. government's official web portal to all federal, state and local government web resources and services.